Time;durP1;ratioP1;P1;durP2;ratioP2;P2;SDS_P1;SDS_P2;PMS_P1;PMS_P2;Temp;Humidity;BMP_temperature;BMP_pressure;BME280_temperature;BME280_humidity;BME280_pressure;Samples;Min_cycle;Max_cycle;Signal;HPM_P1;HPM_P2
2022/07/01 00:00:03;;;;;;;8.63;7.72;;;;;;;14.82;100.00;101342.38;1053931;27;20040;-85
2022/07/01 00:00:43;;;;;;;8.23;7.53;;;;;;;14.39;100.00;101340.72;1057947;28;20043;-86
2022/07/01 00:01:15;;;;;;;7.88;7.18;;;;;;;14.61;100.00;101332.19;1059280;28;20050;-86
2022/07/01 00:01:47;;;;;;;7.95;7.20;;;;;;;14.62;100.00;101336.50;1056349;28;20122;-85
2022/07/01 00:02:19;;;;;;;7.60;6.93;;;;;;;14.72;100.00;101336.75;1053858;28;20036;-86
2022/07/01 00:02:51;;;;;;;7.90;7.10;;;;;;;14.63;100.00;101333.59;1052172;28;20039;-86
2022/07/01 00:03:22;;;;;;;9.68;8.05;;;;;;;14.61;100.00;101326.84;1045070;28;20875;-86
2022/07/01 00:03:55;;;;;;;8.15;6.88;;;;;;;14.56;100.00;101343.63;1044990;28;20057;-85
2022/07/01 00:04:27;;;;;;;7.88;7.07;;;;;;;14.62;100.00;101334.63;1047352;28;20045;-84
2022/07/01 00:05:19;;;;;;;8.38;7.68;;;;;;;14.62;100.00;101333.81;1054040;28;20051;-84
2022/07/01 00:05:50;;;;;;;7.72;7.00;;;;;;;14.78;100.00;101333.94;1047512;28;20528;-85
2022/07/01 00:06:22;;;;;;;9.88;7.63;;;;;;;14.70;100.00;101328.94;1052360;28;20047;-85
2022/07/01 00:06:54;;;;;;;7.78;7.07;;;;;;;14.77;100.00;101335.00;1048065;28;20114;-85
2022/07/01 00:07:26;;;;;;;7.60;7.00;;;;;;;14.86;100.00;101340.03;1048585;28;20667;-84
2022/07/01 00:07:57;;;;;;;11.30;7.70;;;;;;;14.57;100.00;101331.03;1055724;28;20052;-84
2022/07/01 00:08:29;;;;;;;8.73;7.93;;;;;;;14.67;100.00;101331.25;1056904;27;20040;-85
2022/07/01 00:09:01;;;;;;;7.43;6.72;;;;;;;14.65;100.00;101330.69;1064805;27;20117;-86
2022/07/01 00:09:33;;;;;;;7.50;6.90;;;;;;;14.62;100.00;101333.81;1058798;28;20501;-85
2022/07/01 00:10:05;;;;;;;6.85;6.25;;;;;;;14.61;100.00;101327.66;1054367;28;20035;-85
2022/07/01 00:10:37;;;;;;;7.47;6.47;;;;;;;14.64;100.00;101337.09;1050375;28;20036;-85
2022/07/01 00:11:09;;;;;;;7.15;6.28;;;;;;;14.47;100.00;101332.38;1049261;28;20055;-85
2022/07/01 00:11:41;;;;;;;9.07;7.50;;;;;;;14.51;100.00;101322.81;1050395;28;20036;-85
2022/07/01 00:12:13;;;;;;;8.13;7.32;;;;;;;14.55;100.00;101322.41;1052589;28;20046;-85
2022/07/01 00:12:44;;;;;;;8.55;6.90;;;;;;;14.49;100.00;101324.94;1053780;28;20044;-86
2022/07/01 00:13:16;;;;;;;6.32;5.82;;;;;;;14.50;100.00;101318.50;1055555;28;20054;-85
2022/07/01 00:13:47;;;;;;;7.60;7.00;;;;;;;14.58;100.00;101319.25;1056046;28;20513;-85
2022/07/01 00:14:19;;;;;;;7.63;6.80;;;;;;;14.57;100.00;101320.31;1052253;28;20569;-85
2022/07/01 00:14:51;;;;;;;8.13;7.43;;;;;;;14.53;100.00;101314.59;1055288;28;20048;-85
2022/07/01 00:15:25;;;;;;;8.15;7.30;;;;;;;14.48;100.00;101323.28;1048010;28;20519;-84
2022/07/01 00:15:57;;;;;;;7.07;6.45;;;;;;;14.52;100.00;101307.59;1048551;28;20056;-83
2022/07/01 00:16:28;;;;;;;7.28;6.57;;;;;;;14.62;100.00;101321.25;1049743;28;20041;-84
2022/07/01 00:17:00;;;;;;;8.45;7.38;;;;;;;14.51;100.00;101317.47;1052058;28;20314;-85
2022/07/01 00:17:32;;;;;;;7.82;7.05;;;;;;;14.51;100.00;101317.47;1056555;28;20044;-85
2022/07/01 00:18:03;;;;;;;8.70;7.13;;;;;;;14.39;100.00;101319.28;1054610;28;20301;-85
2022/07/01 00:18:35;;;;;;;7.45;6.85;;;;;;;14.49;100.00;101313.38;1052481;28;20048;-85
2022/07/01 00:19:07;;;;;;;7.82;7.13;;;;;;;14.46;100.00;101309.31;1052511;28;20037;-85
2022/07/01 00:19:38;;;;;;;8.20;7.40;;;;;;;14.45;100.00;101307.69;1048176;28;20575;-84
2022/07/01 00:20:11;;;;;;;7.68;6.97;;;;;;;14.63;100.00;101303.28;1046382;28;20234;-85
2022/07/01 00:20:43;;;;;;;7.90;7.10;;;;;;;14.64;100.00;101299.56;1045086;28;20037;-85
2022/07/01 00:21:14;;;;;;;8.05;7.35;;;;;;;14.68;100.00;101301.53;1046903;28;20122;-85
2022/07/01 00:21:46;;;;;;;8.50;7.85;;;;;;;14.42;100.00;101296.56;1051439;28;20036;-85
2022/07/01 00:22:18;;;;;;;8.23;7.63;;;;;;;14.66;100.00;101292.09;1049786;28;20086;-85
2022/07/01 00:22:50;;;;;;;9.43;8.05;;;;;;;14.50;100.00;101286.34;1048620;28;20049;-84
2022/07/01 00:23:21;;;;;;;8.93;8.13;;;;;;;14.64;100.00;101284.28;1048144;28;20094;-80
2022/07/01 00:23:53;;;;;;;9.00;8.20;;;;;;;14.78;100.00;101292.91;1044370;28;20060;-80
2022/07/01 00:24:25;;;;;;;9.40;7.30;;;;;;;14.83;100.00;101282.31;1047760;28;20045;-80
2022/07/01 00:24:56;;;;;;;8.80;7.88;;;;;;;14.63;100.00;101287.19;1051008;28;20536;-80
2022/07/01 00:25:28;;;;;;;8.40;7.60;;;;;;;14.79;100.00;101289.16;1051809;28;20544;-80
2022/07/01 00:26:00;;;;;;;9.25;7.68;;;;;;;14.80;100.00;101282.78;1055370;28;20043;-80
2022/07/01 00:26:31;;;;;;;10.60;8.15;;;;;;;14.72;100.00;101280.44;1055697;28;20114;-80
2022/07/01 00:27:03;;;;;;;8.20;7.50;;;;;;;14.45;100.00;101280.88;1051490;28;20414;-80
2022/07/01 00:27:41;;;;;;;8.27;7.45;;;;;;;14.57;100.00;101283.59;1045074;28;20045;-80
2022/07/01 00:28:13;;;;;;;7.53;6.40;;;;;;;14.74;100.00;101294.41;1047267;28;20131;-85
2022/07/01 00:28:44;;;;;;;8.13;6.60;;;;;;;14.74;100.00;101294.41;1048886;28;20477;-85
2022/07/01 00:29:16;;;;;;;7.68;6.82;;;;;;;14.77;100.00;101291.28;1049852;28;20123;-85
2022/07/01 00:29:48;;;;;;;9.65;7.53;;;;;;;14.42;100.00;101292.03;1052141;28;20540;-80
2022/07/01 00:30:19;;;;;;;7.93;7.32;;;;;;;14.57;100.00;101298.84;1051248;28;20075;-80
2022/07/01 00:30:51;;;;;;;8.93;8.13;;;;;;;14.80;100.00;101299.69;1047510;28;20131;-80
2022/07/01 00:31:23;;;;;;;8.77;7.97;;;;;;;14.79;100.00;101297.22;1051353;28;20047;-80
2022/07/01 00:31:55;;;;;;;7.68;6.90;;;;;;;14.30;100.00;101299.25;1047811;28;20417;-80
2022/07/01 00:32:26;;;;;;;7.72;7.03;;;;;;;14.32;100.00;101297.16;1047983;28;20052;-80
2022/07/01 00:32:58;;;;;;;12.38;7.22;;;;;;;14.46;100.00;101292.41;1053957;28;20127;-80
2022/07/01 00:33:30;;;;;;;9.02;7.65;;;;;;;14.39;100.00;101286.31;1051424;28;20062;-80
2022/07/01 00:34:02;;;;;;;8.45;7.65;;;;;;;14.50;100.00;101286.34;1047483;28;20037;-80
2022/07/01 00:34:34;;;;;;;8.50;7.80;;;;;;;14.64;100.00;101288.81;1048342;28;20048;-80
2022/07/01 00:35:06;;;;;;;8.38;7.57;;;;;;;14.74;100.00;101289.06;1055512;28;20054;-80
2022/07/01 00:35:38;;;;;;;8.77;7.70;;;;;;;14.59;100.00;101291.41;1053359;28;20061;-80
2022/07/01 00:36:10;;;;;;;9.05;8.25;;;;;;;14.03;100.00;101281.91;1051215;28;20079;-80
2022/07/01 00:36:41;;;;;;;9.27;8.25;;;;;;;14.34;100.00;101283.50;1047664;28;20051;-80
2022/07/01 00:37:13;;;;;;;8.15;7.40;;;;;;;14.50;100.00;101274.81;1048057;28;20757;-80
2022/07/01 00:37:45;;;;;;;8.70;7.80;;;;;;;14.43;100.00;101280.28;1051388;28;20096;-80
2022/07/01 00:38:16;;;;;;;8.05;7.35;;;;;;;14.59;100.00;101281.50;1045790;28;20490;-80
2022/07/01 00:38:48;;;;;;;8.38;7.68;;;;;;;14.32;100.00;101288.28;1043479;28;20248;-80
2022/07/01 00:39:20;;;;;;;7.95;7.13;;;;;;;14.44;100.00;101284.59;1041510;28;20131;-80
2022/07/01 00:39:51;;;;;;;8.30;7.43;;;;;;;14.58;100.00;101284.41;1043411;28;20607;-80
2022/07/01 00:40:24;;;;;;;8.32;7.53;;;;;;;14.64;100.00;101278.09;1051704;28;20158;-80
2022/07/01 00:40:56;;;;;;;8.60;7.90;;;;;;;14.53;100.00;101283.22;1051547;28;20040;-80
2022/07/01 00:41:28;;;;;;;8.25;7.50;;;;;;;14.45;100.00;101283.56;1041979;28;20037;-80
2022/07/01 00:42:00;;;;;;;9.13;8.40;;;;;;;14.52;100.00;101281.59;1048179;28;20041;-80
2022/07/01 00:42:32;;;;;;;9.30;8.43;;;;;;;14.62;100.00;101282.88;1048474;28;20174;-82
2022/07/01 00:43:05;;;;;;;10.07;8.32;;;;;;;14.50;100.00;101283.66;1046108;28;20179;-80
2022/07/01 00:43:38;;;;;;;8.85;8.15;;;;;;;14.46;100.00;101281.69;1045218;28;20045;-80
2022/07/01 00:44:25;;;;;;;8.48;7.80;;;;;;;14.42;100.00;101286.66;1042664;28;20041;-80
2022/07/01 00:44:57;;;;;;;9.20;8.50;;;;;;;14.50;100.00;101294.38;1045950;28;20040;-80
2022/07/01 00:45:29;;;;;;;8.73;7.95;;;;;;;14.54;100.00;101292.09;1048977;28;20115;-80
2022/07/01 00:46:00;;;;;;;9.25;8.38;;;;;;;14.44;100.00;101289.16;1053822;28;20036;-80
2022/07/01 00:46:32;;;;;;;9.23;8.40;;;;;;;14.30;100.00;101282.34;1051331;28;20521;-80
2022/07/01 00:47:10;;;;;;;8.73;7.80;;;;;;;14.32;100.00;101291.78;1047461;28;20059;-80
2022/07/01 00:47:43;;;;;;;10.55;9.60;;;;;;;14.36;100.00;101287.59;1044581;28;20426;-80
2022/07/01 00:48:16;;;;;;;9.35;8.55;;;;;;;14.30;100.00;101298.41;1043095;28;20403;-80
2022/07/01 00:48:48;;;;;;;10.50;9.50;;;;;;;14.37;100.00;101288.41;1047179;28;20052;-80
2022/07/01 00:49:19;;;;;;;10.75;9.65;;;;;;;14.41;100.00;101297.63;1047474;28;20040;-80
2022/07/01 00:49:51;;;;;;;11.00;9.80;;;;;;;14.42;100.00;101297.38;1052892;28;20051;-80
2022/07/01 00:50:23;;;;;;;9.88;9.07;;;;;;;14.55;100.00;101295.59;1055953;28;20040;-80
2022/07/01 00:50:54;;;;;;;11.43;10.40;;;;;;;14.58;100.00;101295.13;1052318;28;20454;-80
2022/07/01 00:51:28;;;;;;;10.75;9.75;;;;;;;14.54;100.00;101300.13;1047330;28;20041;-80
2022/07/01 00:51:59;;;;;;;11.77;10.77;;;;;;;14.40;100.00;101291.44;1051106;28;20051;-80
2022/07/01 00:52:32;;;;;;;11.55;10.38;;;;;;;14.20;100.00;101301.63;1051401;28;20301;-80
2022/07/01 00:53:04;;;;;;;11.73;10.73;;;;;;;14.23;100.00;101293.13;1041563;28;20060;-80
2022/07/01 00:53:36;;;;;;;11.60;10.60;;;;;;;14.18;100.00;101293.84;1051843;28;20048;-80
2022/07/01 00:54:08;;;;;;;12.00;10.90;;;;;;;14.23;100.00;101295.81;1049184;28;20120;-80
2022/07/01 00:54:40;;;;;;;12.90;11.32;;;;;;;14.20;100.00;101291.72;1046994;28;20161;-80
2022/07/01 00:55:13;;;;;;;11.88;10.80;;;;;;;14.31;100.00;101300.88;1039600;28;20072;-80
2022/07/01 00:55:45;;;;;;;12.82;11.65;;;;;;;14.30;100.00;101293.88;1046990;28;20410;-80
2022/07/01 00:56:17;;;;;;;12.98;11.77;;;;;;;14.11;100.00;101289.63;1056771;28;20054;-80
2022/07/01 00:56:49;;;;;;;12.77;11.68;;;;;;;14.27;100.00;101293.53;1052430;28;20044;-80
2022/07/01 00:57:20;;;;;;;13.52;12.13;;;;;;;14.20;100.00;101294.41;1051842;28;20081;-80
2022/07/01 00:57:52;;;;;;;12.70;11.43;;;;;;;14.30;100.00;101296.56;1048211;28;20037;-80
2022/07/01 00:58:27;;;;;;;13.43;12.13;;;;;;;14.29;100.00;101296.78;1047889;28;20036;-80
2022/07/01 00:58:58;;;;;;;13.27;12.15;;;;;;;14.21;100.00;101295.22;1043360;28;20048;-80
2022/07/01 00:59:31;;;;;;;13.35;12.18;;;;;;;14.25;100.00;101300.97;1045776;28;20149;-81
2022/07/01 01:00:08;;;;;;;14.45;13.20;;;;;;;14.29;100.00;101300.28;1045123;28;20403;-80
2022/07/01 01:00:40;;;;;;;14.23;12.85;;;;;;;14.04;100.00;101304.97;1049491;28;20051;-80
2022/07/01 01:01:12;;;;;;;13.93;12.73;;;;;;;14.11;100.00;101297.66;1047764;28;20044;-80
2022/07/01 01:01:44;;;;;;;14.93;13.52;;;;;;;14.14;100.00;101306.06;1048012;28;20831;-80
2022/07/01 01:02:15;;;;;;;15.27;13.98;;;;;;;14.21;100.00;101301.41;1056698;28;20305;-80
2022/07/01 01:02:47;;;;;;;15.65;14.25;;;;;;;14.07;100.00;101304.53;1052947;28;20131;-80
2022/07/01 01:03:18;;;;;;;15.70;14.40;;;;;;;14.13;100.00;101303.59;1052082;28;20043;-80
2022/07/01 01:03:50;;;;;;;15.60;14.23;;;;;;;14.25;100.00;101306.34;1046202;28;20052;-80
2022/07/01 01:04:23;;;;;;;14.57;13.27;;;;;;;14.12;100.00;101301.97;1051863;28;20059;-80
2022/07/01 01:04:55;;;;;;;17.92;15.70;;;;;;;14.09;100.00;101302.44;1051952;28;20040;-81
2022/07/01 01:05:26;;;;;;;17.27;15.60;;;;;;;14.16;100.00;101297.78;1049812;28;20040;-80
2022/07/01 01:05:58;;;;;;;16.77;15.27;;;;;;;13.93;100.00;101303.88;1052536;28;20036;-80
2022/07/01 01:06:30;;;;;;;16.20;14.70;;;;;;;14.17;100.00;101299.41;1048584;28;20045;-80
2022/07/01 01:07:02;;;;;;;17.35;15.88;;;;;;;14.03;100.00;101300.66;1048526;28;20109;-80
2022/07/01 01:07:34;;;;;;;17.48;15.77;;;;;;;14.10;100.00;101298.72;1052370;28;20298;-80
2022/07/01 01:08:10;;;;;;;18.63;16.83;;;;;;;13.84;100.00;101306.06;1051286;28;20068;-80
2022/07/01 01:08:42;;;;;;;17.98;16.23;;;;;;;13.80;100.00;101304.88;1043164;28;20041;-80
2022/07/01 01:09:14;;;;;;;18.50;16.65;;;;;;;13.97;100.00;101304.22;1048189;28;20049;-81
2022/07/01 01:09:45;;;;;;;17.17;15.65;;;;;;;13.92;100.00;101303.06;1049765;28;20045;-80
2022/07/01 01:10:18;;;;;;;16.83;15.30;;;;;;;13.52;100.00;101302.75;1051495;28;20040;-80
2022/07/01 01:11:08;;;;;;;18.60;16.77;;;;;;;13.67;100.00;101310.38;1050792;28;20071;-80
2022/07/01 01:11:39;;;;;;;18.80;17.10;;;;;;;13.82;100.00;101305.47;1055634;28;20046;-80
2022/07/01 01:12:11;;;;;;;18.05;16.27;;;;;;;13.95;100.00;101300.97;1058851;27;20089;-80
2022/07/01 01:12:43;;;;;;;18.73;17.00;;;;;;;14.03;100.00;101308.69;1053651;28;20046;-80
2022/07/01 01:13:16;;;;;;;22.38;18.00;;;;;;;14.06;100.00;101306.38;1048804;28;20036;-81
2022/07/01 01:13:48;;;;;;;20.58;18.38;;;;;;;13.95;100.00;101303.66;1049316;28;20037;-80
2022/07/01 01:14:21;;;;;;;20.23;18.15;;;;;;;14.00;100.00;101304.63;1048648;28;20041;-80
2022/07/01 01:14:52;;;;;;;19.88;17.00;;;;;;;13.91;100.00;101306.78;1048311;28;20044;-80
2022/07/01 01:15:24;;;;;;;19.50;17.58;;;;;;;13.87;100.00;101300.25;1048053;28;20419;-80
2022/07/01 01:15:56;;;;;;;19.17;17.05;;;;;;;14.03;100.00;101303.34;1047989;28;20045;-80
2022/07/01 01:16:27;;;;;;;20.05;18.08;;;;;;;14.01;100.00;101306.25;1043895;28;20373;-80
2022/07/01 01:16:59;;;;;;;19.98;18.08;;;;;;;13.91;100.00;101311.31;1048142;28;20040;-80
2022/07/01 01:17:32;;;;;;;20.25;18.45;;;;;;;14.02;100.00;101301.72;1043933;28;20045;-80
2022/07/01 01:18:03;;;;;;;19.02;17.02;;;;;;;14.04;100.00;101311.16;1043510;28;20485;-80
2022/07/01 01:18:35;;;;;;;20.17;18.27;;;;;;;13.97;100.00;101304.22;1045230;28;20037;-80
2022/07/01 01:19:07;;;;;;;21.05;18.92;;;;;;;13.94;100.00;101302.81;1050712;28;20040;-80
2022/07/01 01:19:39;;;;;;;20.45;18.48;;;;;;;14.05;100.00;101311.97;1054662;28;20040;-80
2022/07/01 01:20:15;;;;;;;20.27;18.38;;;;;;;14.08;100.00;101311.50;1050194;28;20138;-80
2022/07/01 01:20:47;;;;;;;19.63;17.88;;;;;;;13.82;100.00;101307.31;1052162;28;20138;-80
2022/07/01 01:21:20;;;;;;;20.33;18.38;;;;;;;14.10;100.00;101309.41;1055658;28;20040;-80
2022/07/01 01:21:53;;;;;;;22.10;19.52;;;;;;;14.18;100.00;101306.41;1049615;28;20040;-80
2022/07/01 01:22:24;;;;;;;22.42;20.17;;;;;;;14.16;100.00;101311.19;1048973;28;20123;-80
2022/07/01 01:22:56;;;;;;;21.95;19.85;;;;;;;14.03;100.00;101312.19;1047670;28;20037;-80
2022/07/01 01:23:28;;;;;;;20.60;18.55;;;;;;;14.13;100.00;101308.97;1043735;28;20524;-80
2022/07/01 01:23:59;;;;;;;20.83;18.92;;;;;;;14.14;100.00;101310.59;1041612;28;20042;-80
2022/07/01 01:24:31;;;;;;;19.17;17.48;;;;;;;14.09;100.00;101311.28;1039396;28;20043;-80
2022/07/01 01:25:04;;;;;;;21.05;19.05;;;;;;;14.13;100.00;101314.31;1046063;28;20057;-80
2022/07/01 01:25:35;;;;;;;20.88;18.63;;;;;;;14.14;100.00;101315.94;1046163;28;20307;-80
2022/07/01 01:26:17;;;;;;;20.42;18.50;;;;;;;13.75;100.00;101318.13;1047719;28;20052;-80
2022/07/01 01:26:50;;;;;;;20.02;17.88;;;;;;;13.70;100.00;101320.66;1052412;28;20437;-80
2022/07/01 01:27:21;;;;;;;21.08;19.13;;;;;;;13.80;100.00;101310.22;1056173;28;20302;-80
2022/07/01 01:27:53;;;;;;;20.80;18.77;;;;;;;13.93;100.00;101318.09;1047595;28;21423;-80
2022/07/01 01:28:25;;;;;;;21.08;19.05;;;;;;;14.03;100.00;101322.09;1048072;28;20045;-80
2022/07/01 01:28:57;;;;;;;21.38;19.38;;;;;;;14.08;100.00;101322.22;1047907;28;20052;-80
2022/07/01 01:29:29;;;;;;;20.83;18.92;;;;;;;14.00;100.00;101326.06;1042585;28;20052;-80
2022/07/01 01:30:00;;;;;;;21.98;19.77;;;;;;;13.81;100.00;101333.28;1039790;28;20060;-80
2022/07/01 01:30:32;;;;;;;20.73;18.83;;;;;;;13.86;100.00;101336.09;1043805;28;20491;-80
2022/07/01 01:31:04;;;;;;;20.55;18.10;;;;;;;13.97;100.00;101339.06;1047903;28;20496;-80
2022/07/01 01:31:36;;;;;;;20.67;18.52;;;;;;;13.87;100.00;101337.75;1047878;28;20425;-80
2022/07/01 01:32:08;;;;;;;21.58;19.58;;;;;;;14.03;100.00;101339.00;1048269;28;20454;-80
2022/07/01 01:32:41;;;;;;;20.40;18.38;;;;;;;14.05;100.00;101339.56;1047765;28;20052;-80
2022/07/01 01:33:13;;;;;;;21.27;19.13;;;;;;;14.17;100.00;101337.75;1043504;28;20053;-81
2022/07/01 01:33:45;;;;;;;22.35;20.15;;;;;;;14.08;100.00;101343.66;1044798;28;20036;-81
2022/07/01 01:34:17;;;;;;;22.55;20.33;;;;;;;14.11;100.00;101344.03;1046706;27;20480;-80
2022/07/01 01:34:49;;;;;;;22.73;20.48;;;;;;;14.05;100.00;101349.47;1052769;28;20957;-80
2022/07/01 01:35:21;;;;;;;22.25;20.23;;;;;;;13.51;100.00;101348.47;1052204;28;20293;-80
2022/07/01 01:35:53;;;;;;;22.65;20.38;;;;;;;13.83;100.00;101351.81;1051761;28;20068;-80
2022/07/01 01:36:24;;;;;;;22.10;19.92;;;;;;;13.65;100.00;101355.31;1051571;28;20119;-80
2022/07/01 01:36:56;;;;;;;21.10;19.20;;;;;;;13.86;100.00;101357.53;1052302;28;20310;-80
2022/07/01 01:37:28;;;;;;;21.55;19.52;;;;;;;14.07;100.00;101355.41;1056205;28;20043;-80
2022/07/01 01:37:59;;;;;;;22.60;20.50;;;;;;;14.09;100.00;101350.66;1056088;28;20120;-80
2022/07/01 01:38:32;;;;;;;24.38;21.90;;;;;;;14.13;100.00;101347.28;1047873;28;20182;-80
2022/07/01 01:39:16;;;;;;;22.25;20.15;;;;;;;13.93;100.00;101354.75;1048699;28;20040;-80
2022/07/01 01:39:47;;;;;;;22.85;20.42;;;;;;;14.06;100.00;101356.47;1050143;28;20302;-80
2022/07/01 01:40:19;;;;;;;24.77;20.55;;;;;;;13.74;100.00;101353.97;1047859;28;20430;-80
2022/07/01 01:40:51;;;;;;;21.90;19.90;;;;;;;13.96;100.00;101356.16;1047796;28;20052;-80
2022/07/01 01:41:22;;;;;;;21.70;19.40;;;;;;;14.04;100.00;101354.00;1048083;28;20047;-80
2022/07/01 01:41:54;;;;;;;22.55;20.25;;;;;;;13.82;100.00;101360.88;1047753;28;20117;-80
2022/07/01 01:42:25;;;;;;;22.45;20.38;;;;;;;13.98;100.00;101360.28;1047310;28;20096;-81
2022/07/01 01:42:57;;;;;;;23.67;21.23;;;;;;;14.04;100.00;101363.91;1050345;28;20186;-80
2022/07/01 01:43:29;;;;;;;23.50;21.05;;;;;;;14.06;100.00;101353.78;1048070;28;20040;-80
2022/07/01 01:44:00;;;;;;;24.13;21.73;;;;;;;14.10;100.00;101352.28;1047094;28;20040;-81
2022/07/01 01:44:32;;;;;;;23.10;20.92;;;;;;;13.99;100.00;101355.75;1045941;28;20044;-80
2022/07/01 01:45:05;;;;;;;26.55;22.15;;;;;;;14.06;100.00;101359.13;1047573;28;20525;-80
2022/07/01 01:45:37;;;;;;;23.58;21.40;;;;;;;14.13;100.00;101352.66;1046939;28;20048;-80
2022/07/01 01:46:08;;;;;;;22.90;20.67;;;;;;;13.72;100.00;101361.41;1050562;28;20041;-80
2022/07/01 01:46:40;;;;;;;24.08;21.48;;;;;;;13.86;100.00;101362.06;1052156;28;20412;-80
2022/07/01 01:47:11;;;;;;;24.13;21.63;;;;;;;13.77;100.00;101364.25;1047684;28;20102;-81
2022/07/01 01:47:43;;;;;;;23.00;20.90;;;;;;;13.82;100.00;101367.06;1052000;28;20116;-80
2022/07/01 01:48:15;;;;;;;23.05;20.75;;;;;;;13.88;100.00;101354.63;1052079;28;20184;-80
2022/07/01 01:48:46;;;;;;;23.85;21.27;;;;;;;13.86;100.00;101359.38;1052370;28;20432;-80
2022/07/01 01:49:18;;;;;;;24.30;21.90;;;;;;;14.07;100.00;101368.81;1048361;28;20059;-80
2022/07/01 01:49:50;;;;;;;24.85;22.35;;;;;;;14.07;100.00;101358.09;1050477;28;20492;-80
2022/07/01 01:50:21;;;;;;;24.77;20.92;;;;;;;13.92;100.00;101361.16;1043765;28;20200;-81
2022/07/01 01:50:53;;;;;;;23.17;21.02;;;;;;;13.64;100.00;101356.34;1046153;28;20048;-80
2022/07/01 01:51:24;;;;;;;22.23;20.00;;;;;;;13.85;100.00;101355.88;1049724;28;20040;-80
2022/07/01 01:51:57;;;;;;;24.77;22.20;;;;;;;13.91;100.00;101354.97;1051840;28;20036;-80
2022/07/01 01:52:29;;;;;;;24.55;21.95;;;;;;;13.98;100.00;101359.47;1047910;28;20044;-80
2022/07/01 01:53:00;;;;;;;26.75;23.95;;;;;;;13.83;100.00;101357.97;1043310;28;20063;-83
2022/07/01 01:53:32;;;;;;;25.75;23.45;;;;;;;13.76;100.00;101362.59;1048322;28;20056;-80
2022/07/01 01:54:04;;;;;;;25.02;22.75;;;;;;;13.90;100.00;101360.56;1045530;28;20388;-80
2022/07/01 01:54:36;;;;;;;25.35;23.00;;;;;;;13.93;100.00;101366.28;1042223;28;20052;-81
2022/07/01 01:55:09;;;;;;;25.17;22.88;;;;;;;14.04;100.00;101361.22;1047882;28;20076;-80
2022/07/01 01:55:41;;;;;;;26.70;24.25;;;;;;;14.02;100.00;101360.63;1044412;28;20048;-80
2022/07/01 01:56:12;;;;;;;25.35;22.95;;;;;;;13.87;100.00;101363.69;1044690;28;20053;-80
2022/07/01 01:56:44;;;;;;;26.45;23.70;;;;;;;13.82;100.00;101358.22;1052664;28;20397;-80
2022/07/01 01:57:15;;;;;;;25.90;23.48;;;;;;;13.89;100.00;101358.94;1052598;28;20040;-80
2022/07/01 01:57:47;;;;;;;24.63;22.17;;;;;;;13.99;100.00;101356.56;1047875;28;20333;-80
2022/07/01 01:58:18;;;;;;;28.88;23.23;;;;;;;13.99;100.00;101353.06;1047834;28;20064;-80
2022/07/01 01:58:50;;;;;;;25.75;23.25;;;;;;;14.04;100.00;101345.97;1047572;28;20036;-80
2022/07/01 01:59:22;;;;;;;24.98;22.42;;;;;;;13.95;100.00;101349.19;1045893;28;20064;-80
2022/07/01 01:59:53;;;;;;;25.00;22.70;;;;;;;13.83;100.00;101346.44;1043818;28;20049;-80
2022/07/01 02:00:25;;;;;;;26.55;24.00;;;;;;;13.91;100.00;101344.28;1043704;28;20396;-80
2022/07/01 02:00:57;;;;;;;26.67;24.08;;;;;;;13.96;100.00;101345.44;1056474;28;20378;-81
2022/07/01 02:01:28;;;;;;;24.77;22.27;;;;;;;13.96;100.00;101345.44;1043538;28;20086;-80
2022/07/01 02:02:00;;;;;;;28.80;24.02;;;;;;;13.92;100.00;101345.91;1047034;28;20521;-80
2022/07/01 02:02:33;;;;;;;26.85;24.13;;;;;;;13.90;100.00;101345.31;1044263;28;20135;-80
2022/07/01 02:03:05;;;;;;;27.02;23.77;;;;;;;13.97;100.00;101352.44;1048171;28;20863;-80
2022/07/01 02:03:40;;;;;;;25.75;23.27;;;;;;;14.03;100.00;101349.69;1047459;28;20067;-81
2022/07/01 02:04:12;;;;;;;26.02;23.55;;;;;;;13.92;100.00;101350.44;1047430;28;20541;-80
2022/07/01 02:04:43;;;;;;;25.80;23.48;;;;;;;14.01;100.00;101348.28;1049185;28;20076;-80
2022/07/01 02:05:15;;;;;;;25.95;23.15;;;;;;;14.06;100.00;101340.38;1050774;28;20071;-80
2022/07/01 02:05:47;;;;;;;25.75;23.45;;;;;;;13.99;100.00;101355.75;1043575;28;20076;-80
2022/07/01 02:06:19;;;;;;;25.52;22.73;;;;;;;14.01;100.00;101349.09;1045820;28;20045;-80
2022/07/01 02:06:52;;;;;;;27.10;24.35;;;;;;;13.49;100.00;101361.28;1051912;28;20097;-80
2022/07/01 02:07:23;;;;;;;26.42;23.67;;;;;;;13.67;100.00;101355.91;1043992;28;20434;-80
2022/07/01 02:07:55;;;;;;;26.50;23.83;;;;;;;13.72;100.00;101355.25;1046337;28;20041;-80
2022/07/01 02:08:26;;;;;;;25.55;23.05;;;;;;;13.72;100.00;101357.94;1048586;28;20044;-80
2022/07/01 02:08:58;;;;;;;24.75;22.35;;;;;;;13.70;100.00;101352.81;1055804;27;20035;-80
2022/07/01 02:09:29;;;;;;;27.08;24.45;;;;;;;13.88;100.00;101359.97;1056314;28;20055;-80
2022/07/01 02:10:01;;;;;;;27.38;24.95;;;;;;;13.85;100.00;101363.09;1051990;28;20097;-80
2022/07/01 02:10:33;;;;;;;27.25;24.75;;;;;;;13.90;100.00;101365.94;1046648;28;20047;-80
2022/07/01 02:11:05;;;;;;;27.40;24.90;;;;;;;13.90;100.00;101363.25;1047972;28;20301;-80
2022/07/01 02:11:36;;;;;;;28.00;25.35;;;;;;;13.78;100.00;101363.19;1047777;28;20040;-80
2022/07/01 02:12:08;;;;;;;26.63;24.17;;;;;;;13.83;100.00;101371.38;1047783;28;20037;-80
2022/07/01 02:12:39;;;;;;;27.80;25.10;;;;;;;13.69;100.00;101366.38;1046396;28;20064;-80
2022/07/01 02:13:11;;;;;;;25.45;23.20;;;;;;;13.86;100.00;101367.41;1044897;28;20498;-80
2022/07/01 02:13:44;;;;;;;27.63;25.02;;;;;;;13.93;100.00;101365.47;1046058;28;20379;-80
2022/07/01 02:14:18;;;;;;;27.70;25.10;;;;;;;13.89;100.00;101367.78;1043689;28;20049;-80
2022/07/01 02:14:49;;;;;;;27.90;25.08;;;;;;;13.97;100.00;101368.50;1045429;28;20041;-80
2022/07/01 02:15:21;;;;;;;28.75;25.80;;;;;;;13.93;100.00;101362.78;1044112;28;20119;-80
2022/07/01 02:15:52;;;;;;;28.55;25.02;;;;;;;13.76;100.00;101357.25;1046011;28;20534;-81
2022/07/01 02:16:24;;;;;;;25.85;23.35;;;;;;;13.87;100.00;101359.16;1044489;28;20043;-80
2022/07/01 02:16:56;;;;;;;29.30;26.60;;;;;;;13.88;100.00;101355.44;1048209;28;20302;-80
2022/07/01 02:17:28;;;;;;;28.00;25.40;;;;;;;14.00;100.00;101357.38;1044821;28;20052;-80
2022/07/01 02:18:00;;;;;;;27.30;24.63;;;;;;;13.95;100.00;101365.25;1046053;28;20052;-80
2022/07/01 02:18:32;;;;;;;26.05;23.55;;;;;;;13.87;100.00;101366.38;1043122;28;20445;-80
2022/07/01 02:19:04;;;;;;;27.73;25.00;;;;;;;13.76;100.00;101367.97;1048046;28;20047;-80
2022/07/01 02:19:35;;;;;;;28.15;25.23;;;;;;;13.82;100.00;101369.72;1045298;28;20434;-80
2022/07/01 02:20:08;;;;;;;27.42;25.00;;;;;;;13.77;100.00;101369.59;1055140;28;20293;-80
2022/07/01 02:20:39;;;;;;;28.95;26.27;;;;;;;13.89;100.00;101367.78;1051404;28;20044;-80
2022/07/01 02:21:11;;;;;;;26.88;24.38;;;;;;;13.91;100.00;101375.59;1050331;28;20525;-80
2022/07/01 02:21:43;;;;;;;28.02;25.35;;;;;;;14.01;100.00;101375.06;1051808;28;20094;-80
2022/07/01 02:22:14;;;;;;;28.25;25.70;;;;;;;14.06;100.00;101375.22;1048061;28;20040;-80
2022/07/01 02:22:47;;;;;;;26.90;24.48;;;;;;;14.03;100.00;101373.00;1047890;28;20280;-80
2022/07/01 02:23:19;;;;;;;26.63;24.13;;;;;;;13.63;100.00;101370.78;1047649;28;20044;-80
2022/07/01 02:23:52;;;;;;;26.20;23.77;;;;;;;13.55;100.00;101371.06;1050160;28;20048;-80
2022/07/01 02:24:23;;;;;;;26.27;23.77;;;;;;;13.82;100.00;101377.75;1047996;28;20776;-80
2022/07/01 02:24:55;;;;;;;28.25;25.65;;;;;;;13.87;100.00;101375.22;1047217;28;20095;-80
2022/07/01 02:25:26;;;;;;;27.92;25.17;;;;;;;13.74;100.00;101370.03;1051376;28;20050;-80
2022/07/01 02:25:58;;;;;;;29.52;25.33;;;;;;;13.69;100.00;101372.56;1047782;28;20364;-80